sensor_id;sensor_type;location;lat;lon;timestamp;temperature;humidity
15450;DHT22;7826;49.784;9.934;2022-07-26T00:00:28;23.00;72.80
15450;DHT22;7826;49.784;9.934;2022-07-26T00:02:54;23.00;72.40
15450;DHT22;7826;49.784;9.934;2022-07-26T00:05:21;23.00;72.30
15450;DHT22;7826;49.784;9.934;2022-07-26T00:07:47;23.00;72.20
15450;DHT22;7826;49.784;9.934;2022-07-26T00:10:13;23.00;72.30
15450;DHT22;7826;49.784;9.934;2022-07-26T00:12:40;23.00;72.30
15450;DHT22;7826;49.784;9.934;2022-07-26T00:15:08;23.00;72.70
15450;DHT22;7826;49.784;9.934;2022-07-26T00:17:35;23.00;72.60
15450;DHT22;7826;49.784;9.934;2022-07-26T00:20:03;23.00;71.90
15450;DHT22;7826;49.784;9.934;2022-07-26T00:22:29;23.00;71.80
15450;DHT22;7826;49.784;9.934;2022-07-26T00:25:06;22.90;71.80
15450;DHT22;7826;49.784;9.934;2022-07-26T00:27:33;22.90;72.00
15450;DHT22;7826;49.784;9.934;2022-07-26T00:30:04;22.90;71.90
15450;DHT22;7826;49.784;9.934;2022-07-26T00:32:30;22.90;72.00
15450;DHT22;7826;49.784;9.934;2022-07-26T00:34:57;22.90;71.70
15450;DHT22;7826;49.784;9.934;2022-07-26T00:37:23;22.90;71.70
15450;DHT22;7826;49.784;9.934;2022-07-26T00:39:49;22.90;71.60
15450;DHT22;7826;49.784;9.934;2022-07-26T00:42:16;23.00;71.50
15450;DHT22;7826;49.784;9.934;2022-07-26T00:44:44;22.90;71.00
15450;DHT22;7826;49.784;9.934;2022-07-26T00:47:11;23.00;70.70
15450;DHT22;7826;49.784;9.934;2022-07-26T00:49:38;23.00;70.10
15450;DHT22;7826;49.784;9.934;2022-07-26T00:52:06;23.00;70.60
15450;DHT22;7826;49.784;9.934;2022-07-26T00:54:33;23.00;70.80
15450;DHT22;7826;49.784;9.934;2022-07-26T00:57:01;22.90;72.60
15450;DHT22;7826;49.784;9.934;2022-07-26T00:59:27;22.80;72.50
15450;DHT22;7826;49.784;9.934;2022-07-26T01:01:54;22.70;76.30
15450;DHT22;7826;49.784;9.934;2022-07-26T01:04:20;22.40;78.70
15450;DHT22;7826;49.784;9.934;2022-07-26T01:06:48;22.00;80.70
15450;DHT22;7826;49.784;9.934;2022-07-26T01:09:15;21.70;81.30
15450;DHT22;7826;49.784;9.934;2022-07-26T01:11:42;21.50;83.70
15450;DHT22;7826;49.784;9.934;2022-07-26T01:14:08;21.30;85.50
15450;DHT22;7826;49.784;9.934;2022-07-26T01:16:34;21.10;87.60
15450;DHT22;7826;49.784;9.934;2022-07-26T01:19:01;21.00;90.20
15450;DHT22;7826;49.784;9.934;2022-07-26T01:21:32;20.80;90.90
15450;DHT22;7826;49.784;9.934;2022-07-26T01:23:58;20.70;91.70
15450;DHT22;7826;49.784;9.934;2022-07-26T01:26:25;20.70;92.30
15450;DHT22;7826;49.784;9.934;2022-07-26T01:29:09;20.60;92.40
15450;DHT22;7826;49.784;9.934;2022-07-26T01:31:54;20.50;92.80
15450;DHT22;7826;49.784;9.934;2022-07-26T01:34:20;20.50;94.20
15450;DHT22;7826;49.784;9.934;2022-07-26T01:36:46;20.40;94.10
15450;DHT22;7826;49.784;9.934;2022-07-26T01:39:13;20.30;94.60
15450;DHT22;7826;49.784;9.934;2022-07-26T01:41:39;20.30;95.30
15450;DHT22;7826;49.784;9.934;2022-07-26T01:44:06;20.30;95.90
15450;DHT22;7826;49.784;9.934;2022-07-26T01:46:33;20.30;97.40
15450;DHT22;7826;49.784;9.934;2022-07-26T01:49:00;20.30;98.10
15450;DHT22;7826;49.784;9.934;2022-07-26T01:51:26;20.30;99.20
15450;DHT22;7826;49.784;9.934;2022-07-26T01:53:53;20.30;99.90
15450;DHT22;7826;49.784;9.934;2022-07-26T01:56:19;20.30;99.90
15450;DHT22;7826;49.784;9.934;2022-07-26T01:58:45;20.30;99.90
15450;DHT22;7826;49.784;9.934;2022-07-26T02:01:12;20.30;99.90
15450;DHT22;7826;49.784;9.934;2022-07-26T02:03:38;20.20;99.90
15450;DHT22;7826;49.784;9.934;2022-07-26T02:06:04;20.20;99.90
15450;DHT22;7826;49.784;9.934;2022-07-26T02:08:31;20.20;99.90
15450;DHT22;7826;49.784;9.934;2022-07-26T02:10:57;20.10;99.90
15450;DHT22;7826;49.784;9.934;2022-07-26T02:13:34;20.10;99.90
15450;DHT22;7826;49.784;9.934;2022-07-26T02:16:02;20.00;99.90
15450;DHT22;7826;49.784;9.934;2022-07-26T02:18:29;20.00;99.90
15450;DHT22;7826;49.784;9.934;2022-07-26T02:20:58;19.90;99.90
15450;DHT22;7826;49.784;9.934;2022-07-26T02:23:25;19.80;99.90
15450;DHT22;7826;49.784;9.934;2022-07-26T02:25:51;19.80;99.90
15450;DHT22;7826;49.784;9.934;2022-07-26T02:28:18;19.70;99.90
15450;DHT22;7826;49.784;9.934;2022-07-26T02:30:46;19.70;99.90
15450;DHT22;7826;49.784;9.934;2022-07-26T02:33:13;19.60;99.90
15450;DHT22;7826;49.784;9.934;2022-07-26T02:35:41;19.60;99.90
15450;DHT22;7826;49.784;9.934;2022-07-26T02:38:10;19.50;99.90
15450;DHT22;7826;49.784;9.934;2022-07-26T02:40:38;19.50;99.90
15450;DHT22;7826;49.784;9.934;2022-07-26T02:43:06;19.40;99.90
15450;DHT22;7826;49.784;9.934;2022-07-26T02:45:33;19.40;99.90
15450;DHT22;7826;49.784;9.934;2022-07-26T02:48:00;19.40;99.90
15450;DHT22;7826;49.784;9.934;2022-07-26T02:50:27;19.30;99.90
15450;DHT22;7826;49.784;9.934;2022-07-26T02:52:54;19.30;99.90
15450;DHT22;7826;49.784;9.934;2022-07-26T02:55:23;19.30;99.90
15450;DHT22;7826;49.784;9.934;2022-07-26T02:57:50;19.20;99.90
15450;DHT22;7826;49.784;9.934;2022-07-26T03:00:19;19.10;99.90
15450;DHT22;7826;49.784;9.934;2022-07-26T03:02:46;19.10;99.90
15450;DHT22;7826;49.784;9.934;2022-07-26T03:05:15;19.00;99.90
15450;DHT22;7826;49.784;9.934;2022-07-26T03:07:42;19.00;99.90
15450;DHT22;7826;49.784;9.934;2022-07-26T03:10:08;19.00;99.90
15450;DHT22;7826;49.784;9.934;2022-07-26T03:12:35;18.90;99.90
15450;DHT22;7826;49.784;9.934;2022-07-26T03:15:02;18.90;99.90
15450;DHT22;7826;49.784;9.934;2022-07-26T03:17:28;19.00;99.90
15450;DHT22;7826;49.784;9.934;2022-07-26T03:19:54;18.90;99.90
15450;DHT22;7826;49.784;9.934;2022-07-26T03:22:20;18.80;99.90
15450;DHT22;7826;49.784;9.934;2022-07-26T03:24:47;18.80;99.90
15450;DHT22;7826;49.784;9.934;2022-07-26T03:27:13;18.70;99.90
15450;DHT22;7826;49.784;9.934;2022-07-26T03:29:39;18.70;99.90
15450;DHT22;7826;49.784;9.934;2022-07-26T03:32:06;18.70;99.90
15450;DHT22;7826;49.784;9.934;2022-07-26T03:34:32;18.70;99.90
15450;DHT22;7826;49.784;9.934;2022-07-26T03:36:59;18.70;99.90
15450;DHT22;7826;49.784;9.934;2022-07-26T03:39:25;18.70;99.90
15450;DHT22;7826;49.784;9.934;2022-07-26T03:41:51;18.70;99.90
15450;DHT22;7826;49.784;9.934;2022-07-26T03:44:18;18.70;99.90
15450;DHT22;7826;49.784;9.934;2022-07-26T03:46:44;18.70;99.90
15450;DHT22;7826;49.784;9.934;2022-07-26T03:49:10;18.70;99.90
15450;DHT22;7826;49.784;9.934;2022-07-26T03:51:37;18.60;99.90
15450;DHT22;7826;49.784;9.934;2022-07-26T03:54:03;18.60;99.90
15450;DHT22;7826;49.784;9.934;2022-07-26T03:56:30;18.60;99.90
15450;DHT22;7826;49.784;9.934;2022-07-26T03:59:05;18.60;99.90
15450;DHT22;7826;49.784;9.934;2022-07-26T04:01:47;18.60;99.90
15450;DHT22;7826;49.784;9.934;2022-07-26T04:04:15;18.50;99.90
15450;DHT22;7826;49.784;9.934;2022-07-26T04:06:44;18.50;99.90
15450;DHT22;7826;49.784;9.934;2022-07-26T04:09:11;18.60;99.90
15450;DHT22;7826;49.784;9.934;2022-07-26T04:11:37;18.50;99.90
15450;DHT22;7826;49.784;9.934;2022-07-26T04:14:05;18.50;99.90
15450;DHT22;7826;49.784;9.934;2022-07-26T04:16:32;18.50;99.90
15450;DHT22;7826;49.784;9.934;2022-07-26T04:18:58;18.50;99.90
15450;DHT22;7826;49.784;9.934;2022-07-26T04:21:24;18.40;99.90
15450;DHT22;7826;49.784;9.934;2022-07-26T04:23:51;18.50;99.90
15450;DHT22;7826;49.784;9.934;2022-07-26T04:26:21;18.50;99.90
15450;DHT22;7826;49.784;9.934;2022-07-26T04:28:48;18.60;99.90
15450;DHT22;7826;49.784;9.934;2022-07-26T04:31:14;18.60;99.90
15450;DHT22;7826;49.784;9.934;2022-07-26T04:33:41;18.60;99.90
15450;DHT22;7826;49.784;9.934;2022-07-26T04:36:08;18.70;99.90
15450;DHT22;7826;49.784;9.934;2022-07-26T04:38:34;18.80;99.90
15450;DHT22;7826;49.784;9.934;2022-07-26T04:41:01;18.80;99.90
15450;DHT22;7826;49.784;9.934;2022-07-26T04:43:28;18.80;99.90
15450;DHT22;7826;49.784;9.934;2022-07-26T04:45:54;18.80;99.90
15450;DHT22;7826;49.784;9.934;2022-07-26T04:48:22;18.90;99.90
15450;DHT22;7826;49.784;9.934;2022-07-26T04:50:48;19.00;99.90
15450;DHT22;7826;49.784;9.934;2022-07-26T04:53:15;19.10;99.90
15450;DHT22;7826;49.784;9.934;2022-07-26T04:55:41;19.20;99.90
15450;DHT22;7826;49.784;9.934;2022-07-26T04:58:08;19.20;99.90
15450;DHT22;7826;49.784;9.934;2022-07-26T05:00:35;19.20;99.90
15450;DHT22;7826;49.784;9.934;2022-07-26T05:03:02;19.20;99.90
15450;DHT22;7826;49.784;9.934;2022-07-26T05:05:30;19.20;99.90
15450;DHT22;7826;49.784;9.934;2022-07-26T05:07:59;19.30;99.90
15450;DHT22;7826;49.784;9.934;2022-07-26T05:10:34;19.30;99.90
15450;DHT22;7826;49.784;9.934;2022-07-26T05:13:04;19.40;99.90
15450;DHT22;7826;49.784;9.934;2022-07-26T05:15:31;19.50;99.90
15450;DHT22;7826;49.784;9.934;2022-07-26T05:18:03;19.60;99.90
15450;DHT22;7826;49.784;9.934;2022-07-26T05:20:30;20.00;99.90
15450;DHT22;7826;49.784;9.934;2022-07-26T05:22:57;20.10;99.90
15450;DHT22;7826;49.784;9.934;2022-07-26T05:25:24;20.10;99.90
15450;DHT22;7826;49.784;9.934;2022-07-26T05:27:51;20.20;99.90
15450;DHT22;7826;49.784;9.934;2022-07-26T05:30:18;20.20;99.90
15450;DHT22;7826;49.784;9.934;2022-07-26T05:32:45;20.20;99.90
15450;DHT22;7826;49.784;9.934;2022-07-26T05:35:12;20.30;99.90
15450;DHT22;7826;49.784;9.934;2022-07-26T05:37:38;20.30;99.90
15450;DHT22;7826;49.784;9.934;2022-07-26T05:40:06;20.20;99.90
15450;DHT22;7826;49.784;9.934;2022-07-26T05:42:32;20.20;99.90
15450;DHT22;7826;49.784;9.934;2022-07-26T05:44:58;20.20;99.90
15450;DHT22;7826;49.784;9.934;2022-07-26T05:47:25;20.20;99.90
15450;DHT22;7826;49.784;9.934;2022-07-26T05:49:52;20.20;99.90
15450;DHT22;7826;49.784;9.934;2022-07-26T05:52:18;20.30;99.90
15450;DHT22;7826;49.784;9.934;2022-07-26T05:54:44;20.50;99.90
15450;DHT22;7826;49.784;9.934;2022-07-26T05:57:11;20.90;99.90
15450;DHT22;7826;49.784;9.934;2022-07-26T05:59:38;21.40;99.90
15450;DHT22;7826;49.784;9.934;2022-07-26T06:02:04;22.00;99.90
15450;DHT22;7826;49.784;9.934;2022-07-26T06:04:33;22.10;99.90
15450;DHT22;7826;49.784;9.934;2022-07-26T06:07:00;21.90;99.90
15450;DHT22;7826;49.784;9.934;2022-07-26T06:09:26;21.80;99.90
15450;DHT22;7826;49.784;9.934;2022-07-26T06:11:53;21.70;99.90
15450;DHT22;7826;49.784;9.934;2022-07-26T06:14:19;21.60;99.90
15450;DHT22;7826;49.784;9.934;2022-07-26T06:16:46;21.60;99.90
15450;DHT22;7826;49.784;9.934;2022-07-26T06:19:13;21.60;99.90
15450;DHT22;7826;49.784;9.934;2022-07-26T06:21:39;21.60;99.90
15450;DHT22;7826;49.784;9.934;2022-07-26T06:24:07;22.10;99.90
15450;DHT22;7826;49.784;9.934;2022-07-26T06:26:33;22.50;99.70
15450;DHT22;7826;49.784;9.934;2022-07-26T06:29:00;22.90;98.90
15450;DHT22;7826;49.784;9.934;2022-07-26T06:31:26;23.30;96.80
15450;DHT22;7826;49.784;9.934;2022-07-26T06:33:52;23.40;96.90
15450;DHT22;7826;49.784;9.934;2022-07-26T06:36:19;23.70;95.00
15450;DHT22;7826;49.784;9.934;2022-07-26T06:38:45;24.00;94.20
15450;DHT22;7826;49.784;9.934;2022-07-26T06:41:12;24.10;92.60
15450;DHT22;7826;49.784;9.934;2022-07-26T06:43:39;24.50;92.10
15450;DHT22;7826;49.784;9.934;2022-07-26T06:46:05;24.80;89.80
15450;DHT22;7826;49.784;9.934;2022-07-26T06:48:33;24.60;79.50
15450;DHT22;7826;49.784;9.934;2022-07-26T06:50:59;24.40;77.10
15450;DHT22;7826;49.784;9.934;2022-07-26T06:53:25;24.60;77.20
15450;DHT22;7826;49.784;9.934;2022-07-26T06:55:52;24.80;74.50
15450;DHT22;7826;49.784;9.934;2022-07-26T06:58:18;25.00;75.50
15450;DHT22;7826;49.784;9.934;2022-07-26T07:00:45;25.30;73.80
15450;DHT22;7826;49.784;9.934;2022-07-26T07:03:11;25.60;72.50
15450;DHT22;7826;49.784;9.934;2022-07-26T07:05:38;25.90;70.40
15450;DHT22;7826;49.784;9.934;2022-07-26T07:08:04;26.10;69.40
15450;DHT22;7826;49.784;9.934;2022-07-26T07:10:31;26.30;68.30
15450;DHT22;7826;49.784;9.934;2022-07-26T07:12:57;26.70;67.60
15450;DHT22;7826;49.784;9.934;2022-07-26T07:15:24;27.10;63.80
15450;DHT22;7826;49.784;9.934;2022-07-26T07:17:50;27.30;61.30
15450;DHT22;7826;49.784;9.934;2022-07-26T07:20:17;27.50;61.00
15450;DHT22;7826;49.784;9.934;2022-07-26T07:22:43;27.90;59.20
15450;DHT22;7826;49.784;9.934;2022-07-26T07:25:09;28.00;58.30
15450;DHT22;7826;49.784;9.934;2022-07-26T07:27:36;28.00;56.90
15450;DHT22;7826;49.784;9.934;2022-07-26T07:30:04;28.30;58.90
15450;DHT22;7826;49.784;9.934;2022-07-26T07:32:32;28.50;56.10
15450;DHT22;7826;49.784;9.934;2022-07-26T07:34:58;28.90;56.30
15450;DHT22;7826;49.784;9.934;2022-07-26T07:37:25;28.60;55.00
15450;DHT22;7826;49.784;9.934;2022-07-26T07:39:51;29.20;56.30
15450;DHT22;7826;49.784;9.934;2022-07-26T07:42:18;29.40;53.90
15450;DHT22;7826;49.784;9.934;2022-07-26T07:44:46;29.80;53.60
15450;DHT22;7826;49.784;9.934;2022-07-26T07:47:12;30.20;53.80
15450;DHT22;7826;49.784;9.934;2022-07-26T07:49:39;30.60;51.40
15450;DHT22;7826;49.784;9.934;2022-07-26T07:52:05;31.10;50.80
15450;DHT22;7826;49.784;9.934;2022-07-26T07:54:31;31.60;51.10
15450;DHT22;7826;49.784;9.934;2022-07-26T07:56:58;32.10;48.40
15450;DHT22;7826;49.784;9.934;2022-07-26T07:59:24;32.60;47.00
15450;DHT22;7826;49.784;9.934;2022-07-26T08:01:51;32.80;47.00
15450;DHT22;7826;49.784;9.934;2022-07-26T08:04:18;33.20;45.50
15450;DHT22;7826;49.784;9.934;2022-07-26T08:06:44;33.70;44.70
15450;DHT22;7826;49.784;9.934;2022-07-26T08:09:10;33.70;43.30
15450;DHT22;7826;49.784;9.934;2022-07-26T08:11:37;33.60;43.40
15450;DHT22;7826;49.784;9.934;2022-07-26T08:14:03;33.90;43.10
15450;DHT22;7826;49.784;9.934;2022-07-26T08:16:29;34.70;41.90
15450;DHT22;7826;49.784;9.934;2022-07-26T08:18:55;34.50;39.10
15450;DHT22;7826;49.784;9.934;2022-07-26T08:21:22;34.50;41.60
15450;DHT22;7826;49.784;9.934;2022-07-26T08:23:48;34.70;38.50
15450;DHT22;7826;49.784;9.934;2022-07-26T08:26:15;34.60;38.60
15450;DHT22;7826;49.784;9.934;2022-07-26T08:28:41;34.70;38.80
15450;DHT22;7826;49.784;9.934;2022-07-26T08:31:09;34.60;38.40
15450;DHT22;7826;49.784;9.934;2022-07-26T08:33:36;34.70;38.50
15450;DHT22;7826;49.784;9.934;2022-07-26T08:36:02;35.00;37.80
15450;DHT22;7826;49.784;9.934;2022-07-26T08:38:29;35.00;37.00
15450;DHT22;7826;49.784;9.934;2022-07-26T08:40:56;34.90;37.40
15450;DHT22;7826;49.784;9.934;2022-07-26T08:43:24;34.20;37.00
15450;DHT22;7826;49.784;9.934;2022-07-26T08:45:50;33.90;40.40
15450;DHT22;7826;49.784;9.934;2022-07-26T08:48:19;34.20;38.00
15450;DHT22;7826;49.784;9.934;2022-07-26T08:50:46;34.00;39.60
15450;DHT22;7826;49.784;9.934;2022-07-26T08:53:12;33.90;39.50
15450;DHT22;7826;49.784;9.934;2022-07-26T08:55:39;33.30;39.30
15450;DHT22;7826;49.784;9.934;2022-07-26T08:58:05;33.90;39.50
15450;DHT22;7826;49.784;9.934;2022-07-26T09:00:33;33.90;39.80
15450;DHT22;7826;49.784;9.934;2022-07-26T09:03:00;34.10;38.60
15450;DHT22;7826;49.784;9.934;2022-07-26T09:05:31;34.60;37.70
15450;DHT22;7826;49.784;9.934;2022-07-26T09:07:58;35.00;37.80
15450;DHT22;7826;49.784;9.934;2022-07-26T09:10:26;35.40;36.80
15450;DHT22;7826;49.784;9.934;2022-07-26T09:12:57;35.30;36.80
15450;DHT22;7826;49.784;9.934;2022-07-26T09:15:25;35.00;36.20
15450;DHT22;7826;49.784;9.934;2022-07-26T09:17:55;35.00;37.20
15450;DHT22;7826;49.784;9.934;2022-07-26T09:20:29;34.60;35.40
15450;DHT22;7826;49.784;9.934;2022-07-26T09:23:05;34.50;35.30
15450;DHT22;7826;49.784;9.934;2022-07-26T09:25:37;34.70;36.30
15450;DHT22;7826;49.784;9.934;2022-07-26T09:30:59;33.60;35.00
15450;DHT22;7826;49.784;9.934;2022-07-26T09:33:51;33.10;37.20
15450;DHT22;7826;49.784;9.934;2022-07-26T09:36:18;33.20;37.80
15450;DHT22;7826;49.784;9.934;2022-07-26T09:38:46;33.30;37.10
15450;DHT22;7826;49.784;9.934;2022-07-26T09:41:26;33.10;37.60
15450;DHT22;7826;49.784;9.934;2022-07-26T09:43:58;33.00;37.30
15450;DHT22;7826;49.784;9.934;2022-07-26T09:46:27;32.70;38.20
15450;DHT22;7826;49.784;9.934;2022-07-26T09:48:55;32.60;37.20
15450;DHT22;7826;49.784;9.934;2022-07-26T09:51:41;32.20;38.20
15450;DHT22;7826;49.784;9.934;2022-07-26T09:54:08;32.00;40.20
15450;DHT22;7826;49.784;9.934;2022-07-26T09:56:51;32.20;39.00
15450;DHT22;7826;49.784;9.934;2022-07-26T09:59:20;32.20;38.70
15450;DHT22;7826;49.784;9.934;2022-07-26T10:01:50;32.10;38.50
15450;DHT22;7826;49.784;9.934;2022-07-26T10:04:18;31.90;39.50
15450;DHT22;7826;49.784;9.934;2022-07-26T10:06:45;31.60;39.60
15450;DHT22;7826;49.784;9.934;2022-07-26T10:09:13;31.60;40.30
15450;DHT22;7826;49.784;9.934;2022-07-26T10:11:43;31.40;41.00
15450;DHT22;7826;49.784;9.934;2022-07-26T10:14:39;31.50;41.10
15450;DHT22;7826;49.784;9.934;2022-07-26T10:19:55;31.40;41.00
15450;DHT22;7826;49.784;9.934;2022-07-26T10:24:55;30.70;40.90
15450;DHT22;7826;49.784;9.934;2022-07-26T10:27:41;30.10;42.10
15450;DHT22;7826;49.784;9.934;2022-07-26T10:38:07;28.20;45.70
15450;DHT22;7826;49.784;9.934;2022-07-26T10:40:35;28.10;46.30
15450;DHT22;7826;49.784;9.934;2022-07-26T10:43:14;28.00;46.20
15450;DHT22;7826;49.784;9.934;2022-07-26T10:45:41;27.60;45.60
15450;DHT22;7826;49.784;9.934;2022-07-26T10:48:09;27.40;45.80
15450;DHT22;7826;49.784;9.934;2022-07-26T10:50:41;27.30;45.70
15450;DHT22;7826;49.784;9.934;2022-07-26T10:53:09;27.30;45.90
15450;DHT22;7826;49.784;9.934;2022-07-26T10:55:49;27.50;46.60
15450;DHT22;7826;49.784;9.934;2022-07-26T10:58:16;27.40;45.40
15450;DHT22;7826;49.784;9.934;2022-07-26T11:01:13;27.30;44.90
15450;DHT22;7826;49.784;9.934;2022-07-26T11:03:41;27.30;44.90
15450;DHT22;7826;49.784;9.934;2022-07-26T11:06:15;27.40;45.10
15450;DHT22;7826;49.784;9.934;2022-07-26T11:08:44;27.50;45.30
15450;DHT22;7826;49.784;9.934;2022-07-26T11:11:12;27.30;45.70
15450;DHT22;7826;49.784;9.934;2022-07-26T11:13:39;27.40;46.00
15450;DHT22;7826;49.784;9.934;2022-07-26T11:16:07;27.50;45.30
15450;DHT22;7826;49.784;9.934;2022-07-26T11:18:36;27.30;43.50
15450;DHT22;7826;49.784;9.934;2022-07-26T11:21:14;27.30;44.70
15450;DHT22;7826;49.784;9.934;2022-07-26T11:23:45;27.30;45.10
15450;DHT22;7826;49.784;9.934;2022-07-26T11:26:21;27.10;45.70
15450;DHT22;7826;49.784;9.934;2022-07-26T11:31:45;27.10;45.90
15450;DHT22;7826;49.784;9.934;2022-07-26T11:34:18;27.10;46.20
15450;DHT22;7826;49.784;9.934;2022-07-26T11:36:45;26.90;45.80
15450;DHT22;7826;49.784;9.934;2022-07-26T11:39:14;26.90;45.80
15450;DHT22;7826;49.784;9.934;2022-07-26T11:41:45;26.80;45.20
15450;DHT22;7826;49.784;9.934;2022-07-26T11:44:16;26.80;46.00
15450;DHT22;7826;49.784;9.934;2022-07-26T11:46:43;26.80;46.00
15450;DHT22;7826;49.784;9.934;2022-07-26T11:49:16;26.70;45.70
15450;DHT22;7826;49.784;9.934;2022-07-26T11:54:20;26.60;45.10
15450;DHT22;7826;49.784;9.934;2022-07-26T11:56:54;26.60;45.90
15450;DHT22;7826;49.784;9.934;2022-07-26T11:59:23;26.40;46.10
15450;DHT22;7826;49.784;9.934;2022-07-26T12:01:50;26.50;46.80
15450;DHT22;7826;49.784;9.934;2022-07-26T12:04:26;26.50;45.60
15450;DHT22;7826;49.784;9.934;2022-07-26T12:06:54;26.50;45.90
15450;DHT22;7826;49.784;9.934;2022-07-26T12:11:54;26.70;45.90
15450;DHT22;7826;49.784;9.934;2022-07-26T12:14:28;26.80;45.50
15450;DHT22;7826;49.784;9.934;2022-07-26T12:16:55;26.60;44.90
15450;DHT22;7826;49.784;9.934;2022-07-26T12:22:09;26.70;45.70
15450;DHT22;7826;49.784;9.934;2022-07-26T12:27:17;26.80;44.70
15450;DHT22;7826;49.784;9.934;2022-07-26T12:29:53;27.00;44.90
15450;DHT22;7826;49.784;9.934;2022-07-26T12:32:21;27.20;45.30
15450;DHT22;7826;49.784;9.934;2022-07-26T12:34:59;27.10;45.50
15450;DHT22;7826;49.784;9.934;2022-07-26T12:37:28;27.40;45.60
15450;DHT22;7826;49.784;9.934;2022-07-26T12:42:34;27.60;44.10
15450;DHT22;7826;49.784;9.934;2022-07-26T12:45:02;27.70;44.30
15450;DHT22;7826;49.784;9.934;2022-07-26T12:47:28;27.90;44.40
15450;DHT22;7826;49.784;9.934;2022-07-26T12:49:55;27.70;44.50
15450;DHT22;7826;49.784;9.934;2022-07-26T12:52:22;27.60;45.10
15450;DHT22;7826;49.784;9.934;2022-07-26T12:54:50;27.50;44.80
15450;DHT22;7826;49.784;9.934;2022-07-26T12:57:16;27.40;45.30
15450;DHT22;7826;49.784;9.934;2022-07-26T12:59:44;27.30;45.20
15450;DHT22;7826;49.784;9.934;2022-07-26T13:02:10;27.20;45.70
15450;DHT22;7826;49.784;9.934;2022-07-26T13:04:37;27.40;46.00
15450;DHT22;7826;49.784;9.934;2022-07-26T13:07:04;27.30;45.90
15450;DHT22;7826;49.784;9.934;2022-07-26T13:09:31;27.00;46.00
15450;DHT22;7826;49.784;9.934;2022-07-26T13:12:02;27.10;46.50
15450;DHT22;7826;49.784;9.934;2022-07-26T13:14:31;27.10;46.20
15450;DHT22;7826;49.784;9.934;2022-07-26T13:16:57;27.10;45.70
15450;DHT22;7826;49.784;9.934;2022-07-26T13:19:24;27.10;45.70
15450;DHT22;7826;49.784;9.934;2022-07-26T13:21:50;27.10;45.00
15450;DHT22;7826;49.784;9.934;2022-07-26T13:24:16;27.20;44.40
15450;DHT22;7826;49.784;9.934;2022-07-26T13:26:43;27.40;43.90
15450;DHT22;7826;49.784;9.934;2022-07-26T13:29:09;27.40;44.00
15450;DHT22;7826;49.784;9.934;2022-07-26T13:31:35;27.60;44.00
15450;DHT22;7826;49.784;9.934;2022-07-26T13:34:02;27.80;43.80
15450;DHT22;7826;49.784;9.934;2022-07-26T13:36:28;27.90;43.20
15450;DHT22;7826;49.784;9.934;2022-07-26T13:38:55;28.00;43.50
15450;DHT22;7826;49.784;9.934;2022-07-26T13:41:22;28.10;43.30
15450;DHT22;7826;49.784;9.934;2022-07-26T13:43:48;28.10;42.60
15450;DHT22;7826;49.784;9.934;2022-07-26T13:46:16;27.90;43.20
15450;DHT22;7826;49.784;9.934;2022-07-26T13:48:42;27.80;43.60
15450;DHT22;7826;49.784;9.934;2022-07-26T13:51:09;27.70;44.00
15450;DHT22;7826;49.784;9.934;2022-07-26T13:53:36;27.70;44.30
15450;DHT22;7826;49.784;9.934;2022-07-26T13:56:03;27.70;44.30
15450;DHT22;7826;49.784;9.934;2022-07-26T13:58:30;27.70;44.60
15450;DHT22;7826;49.784;9.934;2022-07-26T14:00:57;27.60;44.20
15450;DHT22;7826;49.784;9.934;2022-07-26T14:03:24;27.60;44.00
15450;DHT22;7826;49.784;9.934;2022-07-26T14:05:50;27.30;43.70
15450;DHT22;7826;49.784;9.934;2022-07-26T14:08:17;27.20;43.50
15450;DHT22;7826;49.784;9.934;2022-07-26T14:10:43;26.90;43.70
15450;DHT22;7826;49.784;9.934;2022-07-26T14:13:10;26.90;44.20
15450;DHT22;7826;49.784;9.934;2022-07-26T14:15:37;27.10;43.70
15450;DHT22;7826;49.784;9.934;2022-07-26T14:18:04;27.00;44.20
15450;DHT22;7826;49.784;9.934;2022-07-26T14:20:30;27.20;44.40
15450;DHT22;7826;49.784;9.934;2022-07-26T14:22:57;27.10;44.80
15450;DHT22;7826;49.784;9.934;2022-07-26T14:25:25;27.30;45.10
15450;DHT22;7826;49.784;9.934;2022-07-26T14:27:53;27.40;45.30
15450;DHT22;7826;49.784;9.934;2022-07-26T14:30:20;27.40;44.60
15450;DHT22;7826;49.784;9.934;2022-07-26T14:32:47;27.40;45.30
15450;DHT22;7826;49.784;9.934;2022-07-26T14:35:14;27.60;45.80
15450;DHT22;7826;49.784;9.934;2022-07-26T14:37:42;27.60;45.70
15450;DHT22;7826;49.784;9.934;2022-07-26T14:40:09;27.60;45.30
15450;DHT22;7826;49.784;9.934;2022-07-26T14:42:38;27.60;45.40
15450;DHT22;7826;49.784;9.934;2022-07-26T14:45:05;27.70;45.40
15450;DHT22;7826;49.784;9.934;2022-07-26T14:47:32;27.80;45.10
15450;DHT22;7826;49.784;9.934;2022-07-26T14:49:58;27.90;45.10
15450;DHT22;7826;49.784;9.934;2022-07-26T14:52:25;27.80;45.00
15450;DHT22;7826;49.784;9.934;2022-07-26T14:54:51;27.70;45.00
15450;DHT22;7826;49.784;9.934;2022-07-26T14:57:18;27.60;45.70
15450;DHT22;7826;49.784;9.934;2022-07-26T14:59:44;27.50;45.50
15450;DHT22;7826;49.784;9.934;2022-07-26T15:02:11;27.50;46.20
15450;DHT22;7826;49.784;9.934;2022-07-26T15:04:37;27.30;45.40
15450;DHT22;7826;49.784;9.934;2022-07-26T15:07:04;27.30;46.10
15450;DHT22;7826;49.784;9.934;2022-07-26T15:09:30;27.30;46.20
15450;DHT22;7826;49.784;9.934;2022-07-26T15:11:56;27.20;46.30
15450;DHT22;7826;49.784;9.934;2022-07-26T15:14:23;27.10;46.30
15450;DHT22;7826;49.784;9.934;2022-07-26T15:16:50;27.00;45.90
15450;DHT22;7826;49.784;9.934;2022-07-26T15:19:16;26.90;45.90
15450;DHT22;7826;49.784;9.934;2022-07-26T15:21:43;26.80;45.60
15450;DHT22;7826;49.784;9.934;2022-07-26T15:24:09;26.80;45.60
15450;DHT22;7826;49.784;9.934;2022-07-26T15:26:36;26.90;45.00
15450;DHT22;7826;49.784;9.934;2022-07-26T15:29:02;26.80;45.50
15450;DHT22;7826;49.784;9.934;2022-07-26T15:31:29;26.90;46.40
15450;DHT22;7826;49.784;9.934;2022-07-26T15:33:55;27.00;45.50
15450;DHT22;7826;49.784;9.934;2022-07-26T15:36:23;26.90;44.60
15450;DHT22;7826;49.784;9.934;2022-07-26T15:38:50;26.80;45.00
15450;DHT22;7826;49.784;9.934;2022-07-26T15:41:17;26.60;45.70
15450;DHT22;7826;49.784;9.934;2022-07-26T15:43:46;26.70;46.70
15450;DHT22;7826;49.784;9.934;2022-07-26T15:46:13;26.90;46.40
15450;DHT22;7826;49.784;9.934;2022-07-26T15:48:39;27.00;46.20
15450;DHT22;7826;49.784;9.934;2022-07-26T15:51:06;26.90;46.60
15450;DHT22;7826;49.784;9.934;2022-07-26T15:53:32;26.80;47.50
15450;DHT22;7826;49.784;9.934;2022-07-26T15:56:00;27.00;46.70
15450;DHT22;7826;49.784;9.934;2022-07-26T15:58:28;27.10;45.90
15450;DHT22;7826;49.784;9.934;2022-07-26T16:00:55;27.30;45.70
15450;DHT22;7826;49.784;9.934;2022-07-26T16:03:21;27.30;45.70
15450;DHT22;7826;49.784;9.934;2022-07-26T16:05:47;27.40;45.50
15450;DHT22;7826;49.784;9.934;2022-07-26T16:08:14;27.20;45.00
15450;DHT22;7826;49.784;9.934;2022-07-26T16:10:40;26.90;45.60
15450;DHT22;7826;49.784;9.934;2022-07-26T16:13:07;26.50;46.30
15450;DHT22;7826;49.784;9.934;2022-07-26T16:15:33;26.30;47.40
15450;DHT22;7826;49.784;9.934;2022-07-26T16:18:00;26.20;47.70
15450;DHT22;7826;49.784;9.934;2022-07-26T16:20:26;26.00;48.30